sensor_id;sensor_type;location;lat;lon;timestamp;P1;durP1;ratioP1;P2;durP2;ratioP2
19691;SDS011;42748;50.016;19.890;2024-02-15T00:02:24;50.97;;;23.70;;
19691;SDS011;42748;50.016;19.890;2024-02-15T00:04:52;54.38;;;25.45;;
19691;SDS011;42748;50.016;19.890;2024-02-15T00:07:20;51.72;;;24.05;;
19691;SDS011;42748;50.016;19.890;2024-02-15T00:09:49;52.60;;;24.17;;
19691;SDS011;42748;50.016;19.890;2024-02-15T00:12:17;50.30;;;24.63;;
19691;SDS011;42748;50.016;19.890;2024-02-15T00:14:44;48.25;;;23.30;;
19691;SDS011;42748;50.016;19.890;2024-02-15T00:17:12;49.00;;;23.42;;
19691;SDS011;42748;50.016;19.890;2024-02-15T00:19:40;47.72;;;23.65;;
19691;SDS011;42748;50.016;19.890;2024-02-15T00:22:09;47.80;;;22.38;;
19691;SDS011;42748;50.016;19.890;2024-02-15T00:24:37;50.40;;;22.20;;
19691;SDS011;42748;50.016;19.890;2024-02-15T00:27:05;46.00;;;20.92;;
19691;SDS011;42748;50.016;19.890;2024-02-15T00:29:33;44.53;;;20.80;;
19691;SDS011;42748;50.016;19.890;2024-02-15T00:32:01;51.43;;;20.30;;
19691;SDS011;42748;50.016;19.890;2024-02-15T00:34:31;44.17;;;19.73;;
19691;SDS011;42748;50.016;19.890;2024-02-15T00:37:00;42.30;;;19.07;;
19691;SDS011;42748;50.016;19.890;2024-02-15T00:39:28;40.20;;;19.10;;
19691;SDS011;42748;50.016;19.890;2024-02-15T00:41:55;39.57;;;17.33;;
19691;SDS011;42748;50.016;19.890;2024-02-15T00:44:23;38.83;;;17.20;;
19691;SDS011;42748;50.016;19.890;2024-02-15T00:46:51;39.17;;;15.70;;
19691;SDS011;42748;50.016;19.890;2024-02-15T00:49:19;37.93;;;16.80;;
19691;SDS011;42748;50.016;19.890;2024-02-15T00:51:50;39.03;;;15.90;;
19691;SDS011;42748;50.016;19.890;2024-02-15T00:54:17;36.30;;;16.20;;
19691;SDS011;42748;50.016;19.890;2024-02-15T00:56:45;38.50;;;16.30;;
19691;SDS011;42748;50.016;19.890;2024-02-15T00:59:12;35.63;;;16.53;;
19691;SDS011;42748;50.016;19.890;2024-02-15T01:01:40;34.60;;;15.20;;
19691;SDS011;42748;50.016;19.890;2024-02-15T01:04:08;33.57;;;15.70;;
19691;SDS011;42748;50.016;19.890;2024-02-15T01:06:36;35.20;;;16.33;;
19691;SDS011;42748;50.016;19.890;2024-02-15T01:09:03;38.00;;;16.27;;
19691;SDS011;42748;50.016;19.890;2024-02-15T01:11:31;36.87;;;17.57;;
19691;SDS011;42748;50.016;19.890;2024-02-15T01:13:59;43.10;;;18.17;;
19691;SDS011;42748;50.016;19.890;2024-02-15T01:16:27;39.60;;;16.70;;
19691;SDS011;42748;50.016;19.890;2024-02-15T01:18:55;41.20;;;18.47;;
19691;SDS011;42748;50.016;19.890;2024-02-15T01:21:23;37.80;;;18.60;;
19691;SDS011;42748;50.016;19.890;2024-02-15T01:23:50;46.57;;;20.00;;
19691;SDS011;42748;50.016;19.890;2024-02-15T01:26:20;58.80;;;25.10;;
19691;SDS011;42748;50.016;19.890;2024-02-15T01:28:48;143.97;;;51.03;;
19691;SDS011;42748;50.016;19.890;2024-02-15T01:31:15;77.03;;;32.73;;
19691;SDS011;42748;50.016;19.890;2024-02-15T01:33:44;74.33;;;31.37;;
19691;SDS011;42748;50.016;19.890;2024-02-15T01:36:15;56.37;;;25.67;;
19691;SDS011;42748;50.016;19.890;2024-02-15T01:38:43;50.07;;;22.73;;
19691;SDS011;42748;50.016;19.890;2024-02-15T01:41:12;52.03;;;23.43;;
19691;SDS011;42748;50.016;19.890;2024-02-15T01:43:43;48.70;;;22.30;;
19691;SDS011;42748;50.016;19.890;2024-02-15T01:46:14;46.30;;;21.63;;
19691;SDS011;42748;50.016;19.890;2024-02-15T01:48:42;48.63;;;21.90;;
19691;SDS011;42748;50.016;19.890;2024-02-15T01:51:11;48.23;;;20.93;;
19691;SDS011;42748;50.016;19.890;2024-02-15T01:53:41;47.40;;;21.10;;
19691;SDS011;42748;50.016;19.890;2024-02-15T01:56:10;48.73;;;21.73;;
19691;SDS011;42748;50.016;19.890;2024-02-15T01:58:40;43.17;;;19.60;;
19691;SDS011;42748;50.016;19.890;2024-02-15T02:01:08;43.33;;;19.70;;
19691;SDS011;42748;50.016;19.890;2024-02-15T02:03:37;44.57;;;20.07;;
19691;SDS011;42748;50.016;19.890;2024-02-15T02:06:05;39.37;;;18.87;;
19691;SDS011;42748;50.016;19.890;2024-02-15T02:08:33;39.30;;;18.87;;
19691;SDS011;42748;50.016;19.890;2024-02-15T02:11:01;44.50;;;20.80;;
19691;SDS011;42748;50.016;19.890;2024-02-15T02:13:29;41.03;;;19.67;;
19691;SDS011;42748;50.016;19.890;2024-02-15T02:15:57;42.77;;;20.47;;
19691;SDS011;42748;50.016;19.890;2024-02-15T02:18:26;45.50;;;20.70;;
19691;SDS011;42748;50.016;19.890;2024-02-15T02:20:54;50.87;;;22.13;;
19691;SDS011;42748;50.016;19.890;2024-02-15T02:23:25;46.57;;;21.97;;
19691;SDS011;42748;50.016;19.890;2024-02-15T02:25:54;45.63;;;22.20;;
19691;SDS011;42748;50.016;19.890;2024-02-15T02:28:22;47.00;;;22.37;;
19691;SDS011;42748;50.016;19.890;2024-02-15T02:30:50;42.07;;;20.40;;
19691;SDS011;42748;50.016;19.890;2024-02-15T02:33:18;46.30;;;21.33;;
19691;SDS011;42748;50.016;19.890;2024-02-15T02:35:49;48.13;;;21.27;;
19691;SDS011;42748;50.016;19.890;2024-02-15T02:38:18;42.47;;;20.30;;
19691;SDS011;42748;50.016;19.890;2024-02-15T02:40:45;45.50;;;21.63;;
19691;SDS011;42748;50.016;19.890;2024-02-15T02:43:13;48.77;;;21.23;;
19691;SDS011;42748;50.016;19.890;2024-02-15T02:45:41;46.23;;;21.80;;
19691;SDS011;42748;50.016;19.890;2024-02-15T02:48:09;53.53;;;23.03;;
19691;SDS011;42748;50.016;19.890;2024-02-15T02:50:38;47.10;;;22.55;;
19691;SDS011;42748;50.016;19.890;2024-02-15T02:53:06;45.93;;;21.63;;
19691;SDS011;42748;50.016;19.890;2024-02-15T02:55:37;46.27;;;22.30;;
19691;SDS011;42748;50.016;19.890;2024-02-15T02:58:06;52.00;;;23.83;;
19691;SDS011;42748;50.016;19.890;2024-02-15T03:00:34;47.17;;;22.60;;
19691;SDS011;42748;50.016;19.890;2024-02-15T03:03:04;42.60;;;20.47;;
19691;SDS011;42748;50.016;19.890;2024-02-15T03:05:31;41.38;;;20.05;;
19691;SDS011;42748;50.016;19.890;2024-02-15T03:07:59;44.05;;;19.73;;
19691;SDS011;42748;50.016;19.890;2024-02-15T03:10:27;41.03;;;19.27;;
19691;SDS011;42748;50.016;19.890;2024-02-15T03:12:55;44.73;;;20.13;;
19691;SDS011;42748;50.016;19.890;2024-02-15T03:15:23;44.05;;;22.17;;
19691;SDS011;42748;50.016;19.890;2024-02-15T03:17:51;50.33;;;22.97;;
19691;SDS011;42748;50.016;19.890;2024-02-15T03:20:19;51.60;;;23.17;;
19691;SDS011;42748;50.016;19.890;2024-02-15T03:22:55;47.83;;;23.07;;
19691;SDS011;42748;50.016;19.890;2024-02-15T03:25:25;48.20;;;23.27;;
19691;SDS011;42748;50.016;19.890;2024-02-15T03:27:53;52.23;;;25.00;;
19691;SDS011;42748;50.016;19.890;2024-02-15T03:30:23;52.13;;;24.67;;
19691;SDS011;42748;50.016;19.890;2024-02-15T03:32:52;49.93;;;24.53;;
19691;SDS011;42748;50.016;19.890;2024-02-15T03:35:21;55.43;;;26.37;;
19691;SDS011;42748;50.016;19.890;2024-02-15T03:37:51;56.77;;;25.73;;
19691;SDS011;42748;50.016;19.890;2024-02-15T03:40:20;56.13;;;25.47;;
19691;SDS011;42748;50.016;19.890;2024-02-15T03:42:48;52.23;;;26.40;;
19691;SDS011;42748;50.016;19.890;2024-02-15T03:45:18;57.90;;;25.70;;
19691;SDS011;42748;50.016;19.890;2024-02-15T03:47:46;56.93;;;26.43;;
19691;SDS011;42748;50.016;19.890;2024-02-15T03:50:17;55.00;;;25.20;;
19691;SDS011;42748;50.016;19.890;2024-02-15T03:52:45;56.43;;;26.93;;
19691;SDS011;42748;50.016;19.890;2024-02-15T03:55:13;60.70;;;26.10;;
19691;SDS011;42748;50.016;19.890;2024-02-15T03:57:42;57.63;;;26.37;;
19691;SDS011;42748;50.016;19.890;2024-02-15T04:00:13;58.27;;;26.80;;
19691;SDS011;42748;50.016;19.890;2024-02-15T04:02:41;55.80;;;25.77;;
19691;SDS011;42748;50.016;19.890;2024-02-15T04:05:10;55.40;;;25.60;;
19691;SDS011;42748;50.016;19.890;2024-02-15T04:07:39;59.53;;;26.97;;
19691;SDS011;42748;50.016;19.890;2024-02-15T04:10:07;58.13;;;27.33;;
19691;SDS011;42748;50.016;19.890;2024-02-15T04:12:35;67.97;;;28.17;;
19691;SDS011;42748;50.016;19.890;2024-02-15T04:15:04;61.73;;;27.00;;
19691;SDS011;42748;50.016;19.890;2024-02-15T04:17:42;59.13;;;26.83;;
19691;SDS011;42748;50.016;19.890;2024-02-15T04:20:12;62.67;;;27.23;;
19691;SDS011;42748;50.016;19.890;2024-02-15T04:22:42;60.33;;;27.17;;
19691;SDS011;42748;50.016;19.890;2024-02-15T04:25:11;61.00;;;27.23;;
19691;SDS011;42748;50.016;19.890;2024-02-15T04:27:44;62.53;;;27.17;;
19691;SDS011;42748;50.016;19.890;2024-02-15T04:30:16;63.73;;;26.77;;
19691;SDS011;42748;50.016;19.890;2024-02-15T04:32:44;60.57;;;27.17;;
19691;SDS011;42748;50.016;19.890;2024-02-15T04:35:14;56.63;;;26.23;;
19691;SDS011;42748;50.016;19.890;2024-02-15T04:37:42;63.70;;;27.20;;
19691;SDS011;42748;50.016;19.890;2024-02-15T04:40:10;61.07;;;28.20;;
19691;SDS011;42748;50.016;19.890;2024-02-15T04:42:40;58.43;;;26.87;;
19691;SDS011;42748;50.016;19.890;2024-02-15T04:45:12;58.17;;;26.57;;
19691;SDS011;42748;50.016;19.890;2024-02-15T04:47:43;57.57;;;26.23;;
19691;SDS011;42748;50.016;19.890;2024-02-15T04:50:13;57.07;;;26.43;;
19691;SDS011;42748;50.016;19.890;2024-02-15T04:52:41;54.43;;;25.00;;
19691;SDS011;42748;50.016;19.890;2024-02-15T04:55:12;54.45;;;25.83;;
19691;SDS011;42748;50.016;19.890;2024-02-15T04:57:42;56.47;;;25.90;;
19691;SDS011;42748;50.016;19.890;2024-02-15T05:00:10;54.92;;;25.83;;
19691;SDS011;42748;50.016;19.890;2024-02-15T05:02:40;60.80;;;26.60;;
19691;SDS011;42748;50.016;19.890;2024-02-15T05:05:10;53.53;;;25.90;;
19691;SDS011;42748;50.016;19.890;2024-02-15T05:07:41;52.25;;;24.50;;
19691;SDS011;42748;50.016;19.890;2024-02-15T05:10:09;55.75;;;24.92;;
19691;SDS011;42748;50.016;19.890;2024-02-15T05:12:37;53.25;;;25.15;;
19691;SDS011;42748;50.016;19.890;2024-02-15T05:15:07;53.30;;;24.90;;
19691;SDS011;42748;50.016;19.890;2024-02-15T05:17:39;52.92;;;23.70;;
19691;SDS011;42748;50.016;19.890;2024-02-15T05:20:10;49.13;;;23.13;;
19691;SDS011;42748;50.016;19.890;2024-02-15T05:22:40;50.53;;;24.77;;
19691;SDS011;42748;50.016;19.890;2024-02-15T05:25:17;52.42;;;24.35;;
19691;SDS011;42748;50.016;19.890;2024-02-15T05:27:55;59.58;;;25.73;;
19691;SDS011;42748;50.016;19.890;2024-02-15T05:30:24;54.97;;;25.77;;
19691;SDS011;42748;50.016;19.890;2024-02-15T05:32:52;54.38;;;25.67;;
19691;SDS011;42748;50.016;19.890;2024-02-15T05:35:21;60.47;;;26.67;;
19691;SDS011;42748;50.016;19.890;2024-02-15T05:37:50;60.28;;;26.35;;
19691;SDS011;42748;50.016;19.890;2024-02-15T05:40:22;61.47;;;27.60;;
19691;SDS011;42748;50.016;19.890;2024-02-15T05:42:54;56.83;;;26.08;;
19691;SDS011;42748;50.016;19.890;2024-02-15T05:47:52;61.72;;;26.48;;
19691;SDS011;42748;50.016;19.890;2024-02-15T05:50:20;58.08;;;26.65;;
19691;SDS011;42748;50.016;19.890;2024-02-15T05:52:48;65.10;;;25.33;;
19691;SDS011;42748;50.016;19.890;2024-02-15T05:55:16;59.45;;;26.70;;
19691;SDS011;42748;50.016;19.890;2024-02-15T05:57:45;60.20;;;25.63;;
19691;SDS011;42748;50.016;19.890;2024-02-15T06:00:13;53.88;;;25.27;;
19691;SDS011;42748;50.016;19.890;2024-02-15T06:02:49;52.30;;;24.30;;
19691;SDS011;42748;50.016;19.890;2024-02-15T06:05:18;51.42;;;23.98;;
19691;SDS011;42748;50.016;19.890;2024-02-15T06:07:46;47.80;;;23.17;;
19691;SDS011;42748;50.016;19.890;2024-02-15T06:10:14;50.03;;;23.00;;
19691;SDS011;42748;50.016;19.890;2024-02-15T06:12:42;68.15;;;33.65;;
19691;SDS011;42748;50.016;19.890;2024-02-15T06:15:10;86.45;;;42.80;;
19691;SDS011;42748;50.016;19.890;2024-02-15T06:17:43;80.18;;;38.85;;
19691;SDS011;42748;50.016;19.890;2024-02-15T06:20:12;54.03;;;26.58;;
19691;SDS011;42748;50.016;19.890;2024-02-15T06:22:41;54.38;;;26.15;;
19691;SDS011;42748;50.016;19.890;2024-02-15T06:25:09;51.75;;;24.27;;
19691;SDS011;42748;50.016;19.890;2024-02-15T06:27:37;50.58;;;23.88;;
19691;SDS011;42748;50.016;19.890;2024-02-15T06:30:08;48.97;;;23.60;;
19691;SDS011;42748;50.016;19.890;2024-02-15T06:32:55;49.17;;;23.05;;
19691;SDS011;42748;50.016;19.890;2024-02-15T06:35:42;47.22;;;22.30;;
19691;SDS011;42748;50.016;19.890;2024-02-15T06:38:28;45.38;;;23.45;;
19691;SDS011;42748;50.016;19.890;2024-02-15T06:41:14;52.03;;;21.70;;
19691;SDS011;42748;50.016;19.890;2024-02-15T06:43:42;47.67;;;22.63;;
19691;SDS011;42748;50.016;19.890;2024-02-15T06:46:10;56.40;;;23.23;;
19691;SDS011;42748;50.016;19.890;2024-02-15T06:48:41;50.22;;;23.25;;
19691;SDS011;42748;50.016;19.890;2024-02-15T06:51:12;64.32;;;22.77;;
19691;SDS011;42748;50.016;19.890;2024-02-15T06:53:42;50.65;;;23.67;;
19691;SDS011;42748;50.016;19.890;2024-02-15T06:56:10;47.45;;;22.92;;
19691;SDS011;42748;50.016;19.890;2024-02-15T06:58:40;45.58;;;23.00;;
19691;SDS011;42748;50.016;19.890;2024-02-15T07:01:08;51.05;;;22.85;;
19691;SDS011;42748;50.016;19.890;2024-02-15T07:03:36;56.47;;;23.33;;
19691;SDS011;42748;50.016;19.890;2024-02-15T07:06:05;52.47;;;22.38;;
19691;SDS011;42748;50.016;19.890;2024-02-15T07:08:32;49.95;;;24.00;;
19691;SDS011;42748;50.016;19.890;2024-02-15T07:11:01;59.25;;;28.00;;
19691;SDS011;42748;50.016;19.890;2024-02-15T07:13:33;55.38;;;25.42;;
19691;SDS011;42748;50.016;19.890;2024-02-15T07:16:01;60.35;;;25.30;;
19691;SDS011;42748;50.016;19.890;2024-02-15T07:18:29;61.53;;;26.83;;
19691;SDS011;42748;50.016;19.890;2024-02-15T07:21:03;60.80;;;27.92;;
19691;SDS011;42748;50.016;19.890;2024-02-15T07:23:37;64.03;;;28.27;;
19691;SDS011;42748;50.016;19.890;2024-02-15T07:26:05;65.05;;;29.27;;
19691;SDS011;42748;50.016;19.890;2024-02-15T07:28:33;65.47;;;28.85;;
19691;SDS011;42748;50.016;19.890;2024-02-15T07:31:01;68.90;;;29.63;;
19691;SDS011;42748;50.016;19.890;2024-02-15T07:33:29;66.90;;;29.58;;
19691;SDS011;42748;50.016;19.890;2024-02-15T07:35:57;69.15;;;29.83;;
19691;SDS011;42748;50.016;19.890;2024-02-15T07:38:26;67.40;;;29.60;;
19691;SDS011;42748;50.016;19.890;2024-02-15T07:40:53;67.97;;;29.85;;
19691;SDS011;42748;50.016;19.890;2024-02-15T07:43:21;66.18;;;29.38;;
19691;SDS011;42748;50.016;19.890;2024-02-15T07:45:50;66.00;;;28.50;;
19691;SDS011;42748;50.016;19.890;2024-02-15T07:48:18;66.03;;;29.05;;
19691;SDS011;42748;50.016;19.890;2024-02-15T07:50:46;66.68;;;28.52;;
19691;SDS011;42748;50.016;19.890;2024-02-15T07:53:15;65.25;;;27.05;;
19691;SDS011;42748;50.016;19.890;2024-02-15T07:55:43;62.83;;;27.23;;
19691;SDS011;42748;50.016;19.890;2024-02-15T07:58:11;65.13;;;27.83;;
19691;SDS011;42748;50.016;19.890;2024-02-15T08:00:40;66.90;;;26.38;;
19691;SDS011;42748;50.016;19.890;2024-02-15T08:03:07;58.42;;;27.85;;
19691;SDS011;42748;50.016;19.890;2024-02-15T08:05:36;65.38;;;27.73;;
19691;SDS011;42748;50.016;19.890;2024-02-15T08:08:05;66.88;;;26.63;;
19691;SDS011;42748;50.016;19.890;2024-02-15T08:10:33;62.40;;;26.70;;
19691;SDS011;42748;50.016;19.890;2024-02-15T08:13:00;60.65;;;26.25;;
19691;SDS011;42748;50.016;19.890;2024-02-15T08:15:28;57.92;;;27.38;;
19691;SDS011;42748;50.016;19.890;2024-02-15T08:17:56;57.08;;;26.85;;
19691;SDS011;42748;50.016;19.890;2024-02-15T08:20:24;73.03;;;28.45;;
19691;SDS011;42748;50.016;19.890;2024-02-15T08:22:52;58.53;;;27.80;;
19691;SDS011;42748;50.016;19.890;2024-02-15T08:25:20;63.55;;;27.23;;
19691;SDS011;42748;50.016;19.890;2024-02-15T08:27:48;70.90;;;28.50;;
19691;SDS011;42748;50.016;19.890;2024-02-15T08:30:18;68.95;;;28.90;;
19691;SDS011;42748;50.016;19.890;2024-02-15T08:32:51;67.25;;;28.83;;
19691;SDS011;42748;50.016;19.890;2024-02-15T08:35:22;59.35;;;27.77;;
19691;SDS011;42748;50.016;19.890;2024-02-15T08:37:50;70.53;;;28.48;;
19691;SDS011;42748;50.016;19.890;2024-02-15T08:40:19;80.18;;;29.25;;
19691;SDS011;42748;50.016;19.890;2024-02-15T08:42:52;63.17;;;27.63;;
19691;SDS011;42748;50.016;19.890;2024-02-15T08:45:20;66.03;;;27.75;;
19691;SDS011;42748;50.016;19.890;2024-02-15T08:47:49;63.42;;;28.15;;
19691;SDS011;42748;50.016;19.890;2024-02-15T08:50:20;59.70;;;27.55;;
19691;SDS011;42748;50.016;19.890;2024-02-15T08:52:50;74.68;;;27.65;;
19691;SDS011;42748;50.016;19.890;2024-02-15T08:55:18;57.25;;;27.77;;
19691;SDS011;42748;50.016;19.890;2024-02-15T08:57:51;65.05;;;27.75;;
19691;SDS011;42748;50.016;19.890;2024-02-15T09:00:19;57.08;;;26.08;;
19691;SDS011;42748;50.016;19.890;2024-02-15T09:02:47;62.10;;;28.02;;
19691;SDS011;42748;50.016;19.890;2024-02-15T09:05:19;60.80;;;27.60;;
19691;SDS011;42748;50.016;19.890;2024-02-15T09:07:49;59.47;;;26.88;;
19691;SDS011;42748;50.016;19.890;2024-02-15T09:10:18;54.17;;;26.13;;
19691;SDS011;42748;50.016;19.890;2024-02-15T09:12:49;63.50;;;26.23;;
19691;SDS011;42748;50.016;19.890;2024-02-15T09:15:18;57.17;;;25.45;;
19691;SDS011;42748;50.016;19.890;2024-02-15T09:17:46;58.38;;;26.65;;
19691;SDS011;42748;50.016;19.890;2024-02-15T09:20:15;63.90;;;25.20;;
19691;SDS011;42748;50.016;19.890;2024-02-15T09:22:52;68.68;;;27.05;;
19691;SDS011;42748;50.016;19.890;2024-02-15T09:25:23;59.97;;;25.73;;
19691;SDS011;42748;50.016;19.890;2024-02-15T09:27:51;56.67;;;24.10;;
19691;SDS011;42748;50.016;19.890;2024-02-15T09:30:22;53.10;;;25.02;;
19691;SDS011;42748;50.016;19.890;2024-02-15T09:32:51;56.72;;;25.55;;
19691;SDS011;42748;50.016;19.890;2024-02-15T09:35:19;63.15;;;24.35;;
19691;SDS011;42748;50.016;19.890;2024-02-15T09:37:48;52.25;;;22.52;;
19691;SDS011;42748;50.016;19.890;2024-02-15T09:40:16;54.55;;;21.67;;
19691;SDS011;42748;50.016;19.890;2024-02-15T09:42:46;47.13;;;21.23;;
19691;SDS011;42748;50.016;19.890;2024-02-15T09:45:14;51.28;;;21.95;;
19691;SDS011;42748;50.016;19.890;2024-02-15T09:47:44;49.17;;;20.30;;
19691;SDS011;42748;50.016;19.890;2024-02-15T09:50:13;47.97;;;19.80;;
19691;SDS011;42748;50.016;19.890;2024-02-15T09:52:46;45.00;;;20.08;;
19691;SDS011;42748;50.016;19.890;2024-02-15T09:55:13;42.45;;;19.15;;
19691;SDS011;42748;50.016;19.890;2024-02-15T09:57:42;46.50;;;19.13;;
19691;SDS011;42748;50.016;19.890;2024-02-15T10:00:11;43.97;;;18.25;;
19691;SDS011;42748;50.016;19.890;2024-02-15T10:02:41;34.83;;;15.52;;
19691;SDS011;42748;50.016;19.890;2024-02-15T10:05:12;46.50;;;15.32;;
19691;SDS011;42748;50.016;19.890;2024-02-15T10:07:40;40.47;;;16.20;;
19691;SDS011;42748;50.016;19.890;2024-02-15T10:10:15;33.35;;;14.95;;
19691;SDS011;42748;50.016;19.890;2024-02-15T10:12:43;33.13;;;15.57;;
19691;SDS011;42748;50.016;19.890;2024-02-15T10:15:30;35.47;;;15.02;;
19691;SDS011;42748;50.016;19.890;2024-02-15T10:18:00;28.35;;;13.90;;
19691;SDS011;42748;50.016;19.890;2024-02-15T10:20:29;34.92;;;13.95;;
19691;SDS011;42748;50.016;19.890;2024-02-15T10:25:27;20.27;;;9.15;;
19691;SDS011;42748;50.016;19.890;2024-02-15T10:28:02;15.75;;;8.40;;
19691;SDS011;42748;50.016;19.890;2024-02-15T10:30:38;19.27;;;9.13;;
19691;SDS011;42748;50.016;19.890;2024-02-15T10:33:06;21.10;;;9.90;;
19691;SDS011;42748;50.016;19.890;2024-02-15T10:35:34;15.90;;;6.88;;
19691;SDS011;42748;50.016;19.890;2024-02-15T10:38:06;10.35;;;5.25;;
19691;SDS011;42748;50.016;19.890;2024-02-15T10:40:35;9.73;;;5.47;;
19691;SDS011;42748;50.016;19.890;2024-02-15T10:43:03;12.48;;;5.40;;
19691;SDS011;42748;50.016;19.890;2024-02-15T10:45:32;10.45;;;5.28;;
19691;SDS011;42748;50.016;19.890;2024-02-15T10:48:00;11.23;;;5.57;;
19691;SDS011;42748;50.016;19.890;2024-02-15T10:50:27;10.52;;;5.10;;
19691;SDS011;42748;50.016;19.890;2024-02-15T10:52:56;9.43;;;4.75;;
19691;SDS011;42748;50.016;19.890;2024-02-15T10:58:13;12.65;;;5.22;;
19691;SDS011;42748;50.016;19.890;2024-02-15T11:00:44;12.15;;;5.65;;
19691;SDS011;42748;50.016;19.890;2024-02-15T11:03:16;13.40;;;5.47;;
19691;SDS011;42748;50.016;19.890;2024-02-15T11:05:47;11.00;;;5.30;;
19691;SDS011;42748;50.016;19.890;2024-02-15T11:08:15;7.10;;;4.30;;
19691;SDS011;42748;50.016;19.890;2024-02-15T11:10:43;11.18;;;4.90;;
19691;SDS011;42748;50.016;19.890;2024-02-15T11:13:12;6.90;;;3.90;;
19691;SDS011;42748;50.016;19.890;2024-02-15T11:15:43;5.82;;;4.03;;
19691;SDS011;42748;50.016;19.890;2024-02-15T11:21:06;8.13;;;3.75;;
19691;SDS011;42748;50.016;19.890;2024-02-15T11:23:34;4.82;;;2.92;;
19691;SDS011;42748;50.016;19.890;2024-02-15T11:26:03;8.68;;;3.03;;
19691;SDS011;42748;50.016;19.890;2024-02-15T11:28:38;5.15;;;3.22;;
19691;SDS011;42748;50.016;19.890;2024-02-15T11:31:09;4.97;;;3.00;;
19691;SDS011;42748;50.016;19.890;2024-02-15T11:33:43;7.15;;;3.25;;
19691;SDS011;42748;50.016;19.890;2024-02-15T11:36:12;5.78;;;2.80;;
19691;SDS011;42748;50.016;19.890;2024-02-15T11:38:40;6.70;;;2.38;;
19691;SDS011;42748;50.016;19.890;2024-02-15T11:41:10;5.38;;;2.83;;
19691;SDS011;42748;50.016;19.890;2024-02-15T11:46:13;5.25;;;2.90;;
19691;SDS011;42748;50.016;19.890;2024-02-15T11:48:40;5.10;;;2.90;;
19691;SDS011;42748;50.016;19.890;2024-02-15T11:51:09;6.45;;;3.13;;
19691;SDS011;42748;50.016;19.890;2024-02-15T11:53:38;9.13;;;3.03;;
19691;SDS011;42748;50.016;19.890;2024-02-15T11:56:06;6.07;;;3.50;;
19691;SDS011;42748;50.016;19.890;2024-02-15T11:58:37;5.80;;;3.40;;
19691;SDS011;42748;50.016;19.890;2024-02-15T12:01:19;6.40;;;2.95;;
19691;SDS011;42748;50.016;19.890;2024-02-15T12:04:06;7.63;;;2.90;;
19691;SDS011;42748;50.016;19.890;2024-02-15T12:06:57;7.38;;;2.92;;
19691;SDS011;42748;50.016;19.890;2024-02-15T12:09:58;5.75;;;3.50;;
19691;SDS011;42748;50.016;19.890;2024-02-15T12:12:51;7.90;;;3.58;;
19691;SDS011;42748;50.016;19.890;2024-02-15T12:15:37;6.43;;;3.50;;
19691;SDS011;42748;50.016;19.890;2024-02-15T12:18:24;7.75;;;3.10;;
19691;SDS011;42748;50.016;19.890;2024-02-15T12:21:15;6.13;;;3.08;;
19691;SDS011;42748;50.016;19.890;2024-02-15T12:23:48;5.15;;;2.92;;
19691;SDS011;42748;50.016;19.890;2024-02-15T12:26:19;7.15;;;3.50;;
19691;SDS011;42748;50.016;19.890;2024-02-15T12:28:50;6.20;;;3.10;;
19691;SDS011;42748;50.016;19.890;2024-02-15T12:31:22;6.47;;;3.65;;
19691;SDS011;42748;50.016;19.890;2024-02-15T12:34:02;7.07;;;3.72;;
19691;SDS011;42748;50.016;19.890;2024-02-15T12:36:36;8.02;;;3.53;;
19691;SDS011;42748;50.016;19.890;2024-02-15T12:39:06;6.18;;;3.28;;
19691;SDS011;42748;50.016;19.890;2024-02-15T12:41:50;6.38;;;3.50;;
19691;SDS011;42748;50.016;19.890;2024-02-15T12:44:18;6.78;;;3.65;;
19691;SDS011;42748;50.016;19.890;2024-02-15T12:46:55;5.80;;;3.63;;
19691;SDS011;42748;50.016;19.890;2024-02-15T12:56:00;7.72;;;3.60;;
19691;SDS011;42748;50.016;19.890;2024-02-15T12:58:27;7.00;;;3.88;;
19691;SDS011;42748;50.016;19.890;2024-02-15T13:00:57;7.97;;;4.00;;
19691;SDS011;42748;50.016;19.890;2024-02-15T13:03:25;7.22;;;4.15;;
19691;SDS011;42748;50.016;19.890;2024-02-15T13:05:53;9.50;;;4.00;;
19691;SDS011;42748;50.016;19.890;2024-02-15T13:08:21;11.40;;;4.13;;
19691;SDS011;42748;50.016;19.890;2024-02-15T13:10:49;8.18;;;4.05;;
19691;SDS011;42748;50.016;19.890;2024-02-15T13:13:18;8.55;;;4.28;;
19691;SDS011;42748;50.016;19.890;2024-02-15T13:15:47;8.95;;;4.80;;
19691;SDS011;42748;50.016;19.890;2024-02-15T13:18:18;8.65;;;4.05;;
19691;SDS011;42748;50.016;19.890;2024-02-15T13:20:47;8.65;;;4.10;;
19691;SDS011;42748;50.016;19.890;2024-02-15T13:23:19;7.70;;;4.10;;
19691;SDS011;42748;50.016;19.890;2024-02-15T13:25:52;7.15;;;4.10;;
19691;SDS011;42748;50.016;19.890;2024-02-15T13:28:20;10.35;;;3.97;;
19691;SDS011;42748;50.016;19.890;2024-02-15T13:30:48;6.55;;;3.90;;
19691;SDS011;42748;50.016;19.890;2024-02-15T13:33:16;10.55;;;4.05;;
19691;SDS011;42748;50.016;19.890;2024-02-15T13:35:44;7.88;;;3.97;;
19691;SDS011;42748;50.016;19.890;2024-02-15T13:38:12;7.47;;;4.03;;
19691;SDS011;42748;50.016;19.890;2024-02-15T13:40:42;7.10;;;4.05;;
19691;SDS011;42748;50.016;19.890;2024-02-15T13:43:12;6.88;;;4.10;;
19691;SDS011;42748;50.016;19.890;2024-02-15T13:45:40;6.38;;;4.10;;
19691;SDS011;42748;50.016;19.890;2024-02-15T13:48:08;7.03;;;4.00;;
19691;SDS011;42748;50.016;19.890;2024-02-15T13:50:37;6.43;;;3.78;;
19691;SDS011;42748;50.016;19.890;2024-02-15T13:53:06;8.77;;;4.10;;
19691;SDS011;42748;50.016;19.890;2024-02-15T13:55:36;7.50;;;4.28;;
19691;SDS011;42748;50.016;19.890;2024-02-15T13:58:04;7.13;;;4.18;;
19691;SDS011;42748;50.016;19.890;2024-02-15T14:00:35;8.45;;;4.03;;
19691;SDS011;42748;50.016;19.890;2024-02-15T14:03:04;10.00;;;4.07;;
19691;SDS011;42748;50.016;19.890;2024-02-15T14:05:33;10.25;;;4.47;;
19691;SDS011;42748;50.016;19.890;2024-02-15T14:08:02;9.20;;;4.07;;
19691;SDS011;42748;50.016;19.890;2024-02-15T14:10:31;9.38;;;4.60;;
19691;SDS011;42748;50.016;19.890;2024-02-15T14:13:00;7.93;;;3.47;;
19691;SDS011;42748;50.016;19.890;2024-02-15T14:15:28;7.57;;;4.05;;
19691;SDS011;42748;50.016;19.890;2024-02-15T14:17:56;7.63;;;4.05;;
19691;SDS011;42748;50.016;19.890;2024-02-15T14:20:25;12.60;;;4.38;;
19691;SDS011;42748;50.016;19.890;2024-02-15T14:22:53;12.38;;;4.70;;
19691;SDS011;42748;50.016;19.890;2024-02-15T14:25:24;9.55;;;4.95;;
19691;SDS011;42748;50.016;19.890;2024-02-15T14:27:55;8.00;;;5.13;;
19691;SDS011;42748;50.016;19.890;2024-02-15T14:30:24;11.23;;;5.00;;
19691;SDS011;42748;50.016;19.890;2024-02-15T14:33:11;11.20;;;4.75;;
19691;SDS011;42748;50.016;19.890;2024-02-15T14:35:45;8.93;;;4.45;;
19691;SDS011;42748;50.016;19.890;2024-02-15T14:38:14;10.65;;;4.90;;
19691;SDS011;42748;50.016;19.890;2024-02-15T14:40:44;13.95;;;4.90;;
19691;SDS011;42748;50.016;19.890;2024-02-15T14:43:21;7.97;;;4.55;;
19691;SDS011;42748;50.016;19.890;2024-02-15T14:45:49;11.30;;;4.35;;
19691;SDS011;42748;50.016;19.890;2024-02-15T14:48:18;8.90;;;4.30;;
19691;SDS011;42748;50.016;19.890;2024-02-15T14:50:47;6.93;;;4.30;;
19691;SDS011;42748;50.016;19.890;2024-02-15T14:53:18;10.60;;;4.53;;